Time;durP1;ratioP1;P1;durP2;ratioP2;P2;SDS_P1;SDS_P2;PMS_P1;PMS_P2;Temp;Humidity;BMP_temperature;BMP_pressure;BME280_temperature;BME280_humidity;BME280_pressure;Samples;Min_cycle;Max_cycle;Signal;HPM_P1;HPM_P2
2022/12/25 00:00:26;;;;;;;;;;;10.90;99.90;;;;;;5014294;28;20365;-68
2022/12/25 00:02:52;;;;;;;;;;;10.80;99.90;;;;;;5010940;28;19921;-66
2022/12/25 00:05:17;;;;;;;;;;;10.80;99.90;;;;;;5008083;28;19959;-66
2022/12/25 00:07:43;;;;;;;;;;;10.80;99.90;;;;;;5009337;28;19913;-67
2022/12/25 00:10:09;;;;;;;;;;;10.80;99.90;;;;;;5012632;28;19913;-66
2022/12/25 00:12:35;;;;;;;;;;;10.80;99.90;;;;;;5014092;28;19921;-67
2022/12/25 00:15:01;;;;;;;;;;;10.80;99.90;;;;;;5009186;28;19968;-68
2022/12/25 00:17:26;;;;;;;;;;;10.80;99.90;;;;;;4990141;28;19922;-66
2022/12/25 00:19:52;;;;;;;;;;;10.80;99.90;;;;;;4988573;28;20492;-66
2022/12/25 00:22:17;;;;;;;;;;;10.90;99.90;;;;;;5008976;28;19913;-66
2022/12/25 00:24:43;;;;;;;;;;;11.00;99.90;;;;;;5008152;28;19913;-65
2022/12/25 00:27:09;;;;;;;;;;;10.90;99.90;;;;;;5006732;28;19913;-67
2022/12/25 00:29:34;;;;;;;;;;;10.90;99.90;;;;;;5009098;28;20013;-66
2022/12/25 00:32:00;;;;;;;;;;;10.90;99.90;;;;;;4994705;28;20253;-65
2022/12/25 00:34:25;;;;;;;;;;;10.80;99.90;;;;;;4993886;28;19928;-68
2022/12/25 00:36:51;;;;;;;;;;;10.80;99.90;;;;;;4998631;28;19922;-68
2022/12/25 00:39:17;;;;;;;;;;;10.80;99.90;;;;;;4999670;28;19983;-67
2022/12/25 00:44:26;;;;;;;;;;;10.80;99.90;;;;;;4998047;28;19980;-66
2022/12/25 00:46:52;;;;;;;;;;;10.90;99.90;;;;;;5000481;28;19925;-67
2022/12/25 00:49:17;;;;;;;;;;;10.80;99.90;;;;;;4996652;28;19929;-66
2022/12/25 00:51:43;;;;;;;;;;;10.90;99.90;;;;;;4997359;28;19964;-68
2022/12/25 00:54:08;;;;;;;;;;;10.80;99.90;;;;;;4998088;28;19917;-67
2022/12/25 00:56:34;;;;;;;;;;;10.80;99.90;;;;;;4995456;28;19972;-67
2022/12/25 00:59:00;;;;;;;;;;;10.80;99.90;;;;;;4978150;28;20293;-66
2022/12/25 01:01:25;;;;;;;;;;;10.80;99.90;;;;;;4988138;28;19993;-67
2022/12/25 01:03:51;;;;;;;;;;;10.80;99.90;;;;;;5002283;28;20006;-65
2022/12/25 01:06:16;;;;;;;;;;;10.80;99.90;;;;;;5004306;28;20425;-68
2022/12/25 01:11:27;;;;;;;;;;;10.80;99.90;;;;;;5007646;28;20396;-66
2022/12/25 01:13:52;;;;;;;;;;;10.80;99.90;;;;;;5008226;28;19922;-67
2022/12/25 01:16:18;;;;;;;;;;;10.80;99.90;;;;;;5009641;28;19967;-66
2022/12/25 01:18:45;;;;;;;;;;;10.70;99.90;;;;;;4973746;28;19962;-66
2022/12/25 01:21:16;;;;;;;;;;;10.70;99.90;;;;;;5007684;28;19914;-67
2022/12/25 01:23:42;;;;;;;;;;;10.70;99.90;;;;;;5006278;28;19920;-66
2022/12/25 01:26:11;;;;;;;;;;;10.70;99.90;;;;;;5009046;28;20008;-66
2022/12/25 01:28:37;;;;;;;;;;;10.70;99.90;;;;;;5009696;28;20281;-67
2022/12/25 01:31:03;;;;;;;;;;;10.70;99.90;;;;;;5008250;28;19917;-67
2022/12/25 01:33:29;;;;;;;;;;;10.80;99.90;;;;;;5009163;28;19917;-67
2022/12/25 01:35:54;;;;;;;;;;;10.70;99.90;;;;;;4996834;28;20185;-67
2022/12/25 01:38:20;;;;;;;;;;;10.70;99.90;;;;;;4993457;28;19925;-67
2022/12/25 01:40:46;;;;;;;;;;;10.80;99.90;;;;;;4993707;28;19920;-66
2022/12/25 01:43:31;;;;;;;;;;;10.70;99.90;;;;;;4994346;28;20270;-65
2022/12/25 01:45:57;;;;;;;;;;;10.70;99.90;;;;;;4991551;28;19957;-65
2022/12/25 01:48:30;;;;;;;;;;;10.80;99.90;;;;;;4992254;28;20385;-65
2022/12/25 01:51:00;;;;;;;;;;;10.80;99.90;;;;;;4991882;28;19956;-66
2022/12/25 01:53:26;;;;;;;;;;;10.80;99.90;;;;;;5006646;28;19913;-65
2022/12/25 01:55:57;;;;;;;;;;;10.80;99.90;;;;;;5006412;28;19968;-66
2022/12/25 01:58:23;;;;;;;;;;;10.80;99.90;;;;;;4992025;28;20004;-66
2022/12/25 02:00:50;;;;;;;;;;;10.90;99.90;;;;;;4994729;28;19968;-66
2022/12/25 02:03:16;;;;;;;;;;;10.90;99.90;;;;;;4992631;28;19958;-66
2022/12/25 02:05:42;;;;;;;;;;;10.90;99.90;;;;;;4993531;28;19975;-66
2022/12/25 02:08:09;;;;;;;;;;;11.00;99.90;;;;;;4994626;28;20898;-66
2022/12/25 02:10:35;;;;;;;;;;;11.00;99.90;;;;;;4994904;28;20001;-67
2022/12/25 02:13:01;;;;;;;;;;;10.90;99.90;;;;;;4996973;28;19924;-67
2022/12/25 02:15:34;;;;;;;;;;;10.90;99.90;;;;;;4992590;28;19921;-67
2022/12/25 02:18:21;;;;;;;;;;;10.80;99.90;;;;;;4986069;28;19914;-65
2022/12/25 02:21:12;;;;;;;;;;;10.90;99.90;;;;;;5003336;28;20004;-65
2022/12/25 02:23:47;;;;;;;;;;;10.80;99.90;;;;;;5011694;28;19925;-65
2022/12/25 02:26:45;;;;;;;;;;;10.80;99.90;;;;;;5000697;28;19929;-64
2022/12/25 02:29:30;;;;;;;;;;;10.80;99.90;;;;;;4975605;28;19921;-65
2022/12/25 02:32:14;;;;;;;;;;;10.80;99.90;;;;;;5017759;28;19932;-64
2022/12/25 02:34:46;;;;;;;;;;;10.90;99.90;;;;;;5010443;28;19913;-67
2022/12/25 02:37:18;;;;;;;;;;;10.80;99.90;;;;;;5006131;28;20010;-66
2022/12/25 02:40:00;;;;;;;;;;;11.00;99.90;;;;;;5009277;28;19909;-67
2022/12/25 03:07:21;;;;;;;;;;;10.90;99.90;;;;;;5011395;28;20005;-67
2022/12/25 03:12:33;;;;;;;;;;;10.80;99.90;;;;;;5012975;28;19963;-65
2022/12/25 03:17:43;;;;;;;;;;;10.90;99.90;;;;;;5005770;28;19916;-66
2022/12/25 03:28:21;;;;;;;;;;;11.00;99.90;;;;;;5001083;28;20011;-65
2022/12/25 03:31:11;;;;;;;;;;;11.00;99.90;;;;;;5012359;28;19949;-65
2022/12/25 03:37:09;;;;;;;;;;;10.90;99.90;;;;;;5000355;28;19924;-66
2022/12/25 04:37:40;;;;;;;;;;;11.00;99.90;;;;;;5006530;28;20009;-70
2022/12/25 04:40:06;;;;;;;;;;;10.90;99.90;;;;;;5012086;28;19940;-65
2022/12/25 04:42:31;;;;;;;;;;;10.90;99.90;;;;;;4993189;28;19913;-65
2022/12/25 04:44:57;;;;;;;;;;;10.90;99.90;;;;;;5008003;28;19921;-65
2022/12/25 04:47:22;;;;;;;;;;;11.00;99.90;;;;;;5006826;28;20269;-65
2022/12/25 04:49:49;;;;;;;;;;;11.00;99.90;;;;;;5011143;28;20281;-65
2022/12/25 04:52:14;;;;;;;;;;;10.90;99.90;;;;;;5012168;28;19962;-66
2022/12/25 04:54:40;;;;;;;;;;;11.00;99.90;;;;;;5011757;28;19914;-68
2022/12/25 04:57:05;;;;;;;;;;;11.00;99.90;;;;;;5011468;28;19920;-66
2022/12/25 04:59:31;;;;;;;;;;;11.00;99.90;;;;;;5010589;28;19909;-66
2022/12/25 05:01:56;;;;;;;;;;;11.00;99.90;;;;;;5011497;28;19913;-66
2022/12/25 05:04:22;;;;;;;;;;;11.00;99.90;;;;;;5009265;28;19957;-65
2022/12/25 05:06:48;;;;;;;;;;;11.00;99.90;;;;;;4996676;28;19913;-65
2022/12/25 05:09:13;;;;;;;;;;;11.10;99.90;;;;;;5010644;28;19976;-66
2022/12/25 05:11:39;;;;;;;;;;;11.20;99.90;;;;;;5010744;28;19944;-66
2022/12/25 05:14:04;;;;;;;;;;;11.20;99.90;;;;;;5009448;28;19937;-65
2022/12/25 05:16:30;;;;;;;;;;;11.20;99.90;;;;;;5009936;28;19964;-66
2022/12/25 05:18:56;;;;;;;;;;;11.20;99.90;;;;;;5013405;28;19933;-67
2022/12/25 05:21:22;;;;;;;;;;;11.20;99.90;;;;;;5006554;28;19960;-66
2022/12/25 05:23:51;;;;;;;;;;;11.10;99.90;;;;;;4990947;28;20357;-66
2022/12/25 05:26:23;;;;;;;;;;;11.10;99.90;;;;;;5007312;28;20388;-66
2022/12/25 05:28:48;;;;;;;;;;;11.10;99.90;;;;;;5010088;28;19913;-65
2022/12/25 05:31:14;;;;;;;;;;;11.00;99.90;;;;;;5010057;28;20004;-66
2022/12/25 05:33:40;;;;;;;;;;;11.00;99.90;;;;;;4997782;28;19910;-68
2022/12/25 05:36:06;;;;;;;;;;;11.00;99.90;;;;;;4999347;28;19914;-65
2022/12/25 05:38:32;;;;;;;;;;;11.00;99.90;;;;;;5004794;28;19918;-66
2022/12/25 05:40:58;;;;;;;;;;;11.00;99.90;;;;;;5001471;28;20281;-67
2022/12/25 05:43:24;;;;;;;;;;;10.90;99.90;;;;;;5009664;28;19909;-66
2022/12/25 05:45:49;;;;;;;;;;;10.90;99.90;;;;;;5008403;28;19989;-67
2022/12/25 05:48:15;;;;;;;;;;;11.00;99.90;;;;;;5003450;28;20490;-66
2022/12/25 05:50:41;;;;;;;;;;;11.10;99.90;;;;;;5005618;28;19968;-66
2022/12/25 05:53:07;;;;;;;;;;;11.20;99.90;;;;;;5005290;28;19922;-65
2022/12/25 05:55:37;;;;;;;;;;;11.10;99.90;;;;;;4998042;28;19914;-66
2022/12/25 05:58:03;;;;;;;;;;;11.10;99.90;;;;;;5011549;28;19958;-66
2022/12/25 06:00:28;;;;;;;;;;;11.00;99.90;;;;;;5012880;28;20281;-66
2022/12/25 06:02:54;;;;;;;;;;;11.00;99.90;;;;;;5004133;28;20028;-66
2022/12/25 06:05:20;;;;;;;;;;;10.90;99.90;;;;;;5019972;28;19976;-66
2022/12/25 06:07:45;;;;;;;;;;;11.00;99.90;;;;;;4991206;28;19913;-66
2022/12/25 06:10:11;;;;;;;;;;;11.00;99.90;;;;;;5010363;28;20014;-66
2022/12/25 06:12:36;;;;;;;;;;;11.10;99.90;;;;;;5010509;28;19925;-69
2022/12/25 06:15:02;;;;;;;;;;;11.00;99.90;;;;;;5008566;28;19910;-67
2022/12/25 06:17:28;;;;;;;;;;;11.10;99.90;;;;;;5009040;28;19916;-67
2022/12/25 06:19:54;;;;;;;;;;;11.00;99.90;;;;;;4995375;28;19910;-67
2022/12/25 06:22:19;;;;;;;;;;;11.00;99.90;;;;;;5018383;28;19948;-67
2022/12/25 06:24:45;;;;;;;;;;;11.00;99.90;;;;;;5006423;28;19913;-68
2022/12/25 06:27:10;;;;;;;;;;;11.00;99.90;;;;;;5001564;28;19914;-67
2022/12/25 06:29:36;;;;;;;;;;;11.10;99.90;;;;;;5007114;28;19964;-67
2022/12/25 06:32:02;;;;;;;;;;;11.10;99.90;;;;;;5013747;28;20309;-69
2022/12/25 06:34:27;;;;;;;;;;;11.10;99.90;;;;;;5007527;28;20298;-67
2022/12/25 06:36:53;;;;;;;;;;;11.10;99.90;;;;;;5013455;28;19920;-66
2022/12/25 06:39:20;;;;;;;;;;;11.20;99.90;;;;;;5005044;28;19920;-68
2022/12/25 06:41:46;;;;;;;;;;;11.20;99.90;;;;;;4996735;28;20013;-67
2022/12/25 06:44:12;;;;;;;;;;;11.20;99.90;;;;;;5013765;28;19942;-69
2022/12/25 06:46:37;;;;;;;;;;;11.20;99.90;;;;;;5015728;28;19960;-65
2022/12/25 06:49:03;;;;;;;;;;;11.20;99.90;;;;;;5010986;28;20312;-68
2022/12/25 06:51:29;;;;;;;;;;;11.20;99.90;;;;;;5007932;28;20038;-66
2022/12/25 06:53:56;;;;;;;;;;;11.20;99.90;;;;;;5004812;28;19918;-67
2022/12/25 06:56:23;;;;;;;;;;;11.20;99.90;;;;;;5001294;28;20296;-68
2022/12/25 06:58:50;;;;;;;;;;;11.20;99.90;;;;;;5010455;28;19964;-67
2022/12/25 07:01:18;;;;;;;;;;;11.10;99.90;;;;;;5015255;28;19963;-67
2022/12/25 07:03:44;;;;;;;;;;;11.10;99.90;;;;;;5011553;28;19913;-67
2022/12/25 07:06:10;;;;;;;;;;;11.10;99.90;;;;;;5010699;28;19914;-68
2022/12/25 07:08:36;;;;;;;;;;;11.10;99.90;;;;;;5008830;28;19928;-69
2022/12/25 07:11:02;;;;;;;;;;;11.10;99.90;;;;;;5013729;28;20372;-67
2022/12/25 07:13:27;;;;;;;;;;;11.10;99.90;;;;;;4999229;28;20012;-68
2022/12/25 07:16:03;;;;;;;;;;;11.10;99.90;;;;;;5020898;28;19920;-68
2022/12/25 07:18:29;;;;;;;;;;;11.10;99.90;;;;;;5013649;28;19918;-68
2022/12/25 07:20:54;;;;;;;;;;;11.10;99.90;;;;;;5024771;28;20391;-67
2022/12/25 07:23:20;;;;;;;;;;;11.10;99.90;;;;;;5020171;28;19975;-65
2022/12/25 07:25:58;;;;;;;;;;;11.10;99.90;;;;;;5004385;28;19925;-64
2022/12/25 07:28:24;;;;;;;;;;;11.10;99.90;;;;;;5017656;28;20004;-64
2022/12/25 07:30:50;;;;;;;;;;;11.10;99.90;;;;;;5015808;28;19959;-64
2022/12/25 07:33:16;;;;;;;;;;;11.10;99.90;;;;;;5009762;28;19933;-64
2022/12/25 07:35:41;;;;;;;;;;;11.10;99.90;;;;;;5007941;28;20026;-64
2022/12/25 07:38:07;;;;;;;;;;;11.10;99.90;;;;;;5015461;28;20000;-64
2022/12/25 07:40:32;;;;;;;;;;;11.10;99.90;;;;;;4992712;28;19925;-63
2022/12/25 07:42:58;;;;;;;;;;;11.10;99.90;;;;;;5015886;28;19913;-64
2022/12/25 07:45:23;;;;;;;;;;;11.00;99.90;;;;;;5005896;28;19913;-64
2022/12/25 07:47:49;;;;;;;;;;;11.10;99.90;;;;;;5007693;28;19953;-63
2022/12/25 07:50:15;;;;;;;;;;;11.10;99.90;;;;;;5009140;28;19917;-64
2022/12/25 07:52:41;;;;;;;;;;;11.10;99.90;;;;;;5011821;28;20517;-64
2022/12/25 07:55:06;;;;;;;;;;;11.10;99.90;;;;;;5002742;28;19967;-63
2022/12/25 07:57:33;;;;;;;;;;;11.20;99.90;;;;;;5018159;28;20616;-65
2022/12/25 07:59:58;;;;;;;;;;;11.20;99.90;;;;;;4993933;28;20396;-63
2022/12/25 08:02:27;;;;;;;;;;;11.20;99.90;;;;;;5021448;28;19913;-64
2022/12/25 08:04:53;;;;;;;;;;;11.20;99.90;;;;;;5003895;28;20386;-63
2022/12/25 08:07:19;;;;;;;;;;;11.20;99.90;;;;;;5006164;28;19921;-63
2022/12/25 08:09:44;;;;;;;;;;;11.20;99.90;;;;;;5006226;28;19917;-64
2022/12/25 08:12:10;;;;;;;;;;;11.20;99.90;;;;;;5007695;28;19968;-64
2022/12/25 08:14:35;;;;;;;;;;;11.20;99.90;;;;;;5010671;28;20400;-64
2022/12/25 08:17:01;;;;;;;;;;;11.20;99.90;;;;;;5017745;28;19962;-65
2022/12/25 08:19:27;;;;;;;;;;;11.20;99.90;;;;;;5013384;28;20004;-63
2022/12/25 08:21:53;;;;;;;;;;;11.20;99.90;;;;;;5018725;28;19921;-63
2022/12/25 08:24:19;;;;;;;;;;;11.30;99.90;;;;;;5005930;28;19959;-64
2022/12/25 08:26:44;;;;;;;;;;;11.30;99.90;;;;;;5009535;28;19935;-63
2022/12/25 08:29:10;;;;;;;;;;;11.30;99.90;;;;;;5006131;28;19926;-63
2022/12/25 08:31:36;;;;;;;;;;;11.30;99.90;;;;;;5013304;28;20339;-63
2022/12/25 08:34:02;;;;;;;;;;;11.30;99.90;;;;;;5028739;28;19913;-63
2022/12/25 08:36:28;;;;;;;;;;;11.30;99.90;;;;;;5017829;28;19913;-64
2022/12/25 08:38:54;;;;;;;;;;;11.40;99.90;;;;;;5010954;28;19910;-63
2022/12/25 08:41:19;;;;;;;;;;;11.40;99.90;;;;;;5003791;28;19913;-64
2022/12/25 08:43:45;;;;;;;;;;;11.40;99.90;;;;;;5009710;28;19917;-66
2022/12/25 08:46:11;;;;;;;;;;;11.40;99.90;;;;;;5012542;28;19969;-64
2022/12/25 08:48:36;;;;;;;;;;;11.40;99.90;;;;;;5011905;28;19952;-64
2022/12/25 08:51:02;;;;;;;;;;;11.40;99.90;;;;;;5006593;28;20308;-63
2022/12/25 08:53:28;;;;;;;;;;;11.50;99.90;;;;;;5009530;28;20393;-62
2022/12/25 08:56:00;;;;;;;;;;;11.50;99.90;;;;;;5010219;28;20001;-62
2022/12/25 08:58:26;;;;;;;;;;;11.50;99.90;;;;;;5000366;28;19955;-63
2022/12/25 09:00:52;;;;;;;;;;;11.50;99.90;;;;;;5006303;28;19913;-63
2022/12/25 09:03:17;;;;;;;;;;;11.60;99.90;;;;;;5008535;28;19917;-64
2022/12/25 09:05:43;;;;;;;;;;;11.60;99.90;;;;;;5012808;28;20336;-64
2022/12/25 09:08:09;;;;;;;;;;;11.60;99.90;;;;;;5011730;28;20020;-63
2022/12/25 09:10:35;;;;;;;;;;;11.70;99.90;;;;;;5004487;28;19910;-64
2022/12/25 09:13:01;;;;;;;;;;;11.80;99.90;;;;;;5007593;28;19921;-64
2022/12/25 09:15:26;;;;;;;;;;;11.80;99.90;;;;;;5019419;28;20000;-64
2022/12/25 09:17:52;;;;;;;;;;;11.80;99.90;;;;;;5012290;28;19913;-63
2022/12/25 09:20:17;;;;;;;;;;;11.80;99.90;;;;;;5013324;28;19918;-63
2022/12/25 09:22:43;;;;;;;;;;;11.90;99.90;;;;;;5014848;28;19914;-64
2022/12/25 09:25:09;;;;;;;;;;;11.90;99.90;;;;;;5014942;28;20008;-64
2022/12/25 09:27:34;;;;;;;;;;;11.90;99.90;;;;;;5020721;28;20369;-64
2022/12/25 09:30:00;;;;;;;;;;;11.90;99.90;;;;;;5013469;28;19913;-65
2022/12/25 09:32:25;;;;;;;;;;;12.10;99.90;;;;;;5007928;28;19918;-64
2022/12/25 09:34:51;;;;;;;;;;;12.10;99.90;;;;;;5009436;28;20334;-64
2022/12/25 09:37:17;;;;;;;;;;;12.10;99.90;;;;;;5016236;28;20914;-61
2022/12/25 09:39:42;;;;;;;;;;;12.00;99.90;;;;;;5004113;28;19914;-63
2022/12/25 09:42:17;;;;;;;;;;;12.10;99.90;;;;;;5007291;28;20008;-59
2022/12/25 09:44:46;;;;;;;;;;;12.20;99.90;;;;;;5009848;28;19960;-63
2022/12/25 09:47:19;;;;;;;;;;;12.20;99.90;;;;;;5008661;28;20244;-64
2022/12/25 09:49:48;;;;;;;;;;;12.30;99.90;;;;;;5006483;28;20378;-64
2022/12/25 09:52:34;;;;;;;;;;;12.30;99.90;;;;;;5015013;28;19917;-64
2022/12/25 09:55:00;;;;;;;;;;;12.20;99.90;;;;;;5004493;28;19936;-63
2022/12/25 09:57:25;;;;;;;;;;;12.20;99.90;;;;;;5002006;28;19917;-62
2022/12/25 09:59:53;;;;;;;;;;;12.20;99.90;;;;;;5009676;28;19968;-64
2022/12/25 10:02:30;;;;;;;;;;;12.20;99.90;;;;;;5017435;28;19926;-62
2022/12/25 10:05:16;;;;;;;;;;;12.30;99.90;;;;;;5015052;28;19923;-63
2022/12/25 10:07:45;;;;;;;;;;;12.30;99.90;;;;;;5020216;28;19913;-63
2022/12/25 10:10:25;;;;;;;;;;;12.30;99.90;;;;;;5018282;28;20569;-64
2022/12/25 10:12:57;;;;;;;;;;;12.30;99.90;;;;;;5019341;28;19921;-62
2022/12/25 10:15:35;;;;;;;;;;;12.30;99.90;;;;;;5019900;28;19913;-65
2022/12/25 10:18:03;;;;;;;;;;;12.20;99.90;;;;;;5008745;28;19914;-64
2022/12/25 10:20:49;;;;;;;;;;;12.10;99.90;;;;;;5008428;28;19996;-62
2022/12/25 10:23:16;;;;;;;;;;;12.10;99.90;;;;;;5018832;28;19910;-64
2022/12/25 10:25:43;;;;;;;;;;;12.10;99.90;;;;;;5018581;28;20004;-63
2022/12/25 10:28:13;;;;;;;;;;;12.10;99.90;;;;;;5014227;28;20344;-64
2022/12/25 10:30:41;;;;;;;;;;;12.20;99.90;;;;;;5010694;28;20533;-62
2022/12/25 10:33:08;;;;;;;;;;;12.30;99.90;;;;;;5014565;28;19913;-66
2022/12/25 10:35:33;;;;;;;;;;;12.20;99.90;;;;;;5022812;28;20369;-64
2022/12/25 10:38:01;;;;;;;;;;;12.20;99.90;;;;;;5013224;28;19948;-64
2022/12/25 10:40:49;;;;;;;;;;;12.30;99.90;;;;;;5006784;28;19953;-62
2022/12/25 10:43:25;;;;;;;;;;;12.30;99.90;;;;;;4985827;28;19925;-63
2022/12/25 10:45:51;;;;;;;;;;;12.40;99.90;;;;;;5006288;28;19928;-61
2022/12/25 10:48:21;;;;;;;;;;;12.40;99.90;;;;;;5007157;28;19914;-63
2022/12/25 10:50:47;;;;;;;;;;;12.50;99.90;;;;;;5011525;28;19917;-64
2022/12/25 10:53:18;;;;;;;;;;;12.40;99.90;;;;;;5000709;28;19914;-59
2022/12/25 10:55:52;;;;;;;;;;;12.40;99.90;;;;;;4993619;28;19921;-62
2022/12/25 10:58:19;;;;;;;;;;;12.40;99.90;;;;;;5011979;28;19914;-67
2022/12/25 11:00:50;;;;;;;;;;;12.40;99.90;;;;;;4991876;28;19913;-62
2022/12/25 11:03:20;;;;;;;;;;;12.50;99.90;;;;;;5010955;28;20017;-65
2022/12/25 11:05:49;;;;;;;;;;;12.50;99.90;;;;;;5011886;28;20277;-63
2022/12/25 11:08:18;;;;;;;;;;;12.40;99.90;;;;;;5021300;28;19921;-61
2022/12/25 11:10:51;;;;;;;;;;;12.40;99.90;;;;;;5003950;28;20297;-65
2022/12/25 11:13:18;;;;;;;;;;;12.50;99.90;;;;;;5006697;28;19918;-61
2022/12/25 11:15:46;;;;;;;;;;;12.40;99.90;;;;;;5010568;28;20885;-62
2022/12/25 11:18:28;;;;;;;;;;;12.40;99.90;;;;;;5018101;28;20008;-62
2022/12/25 11:20:58;;;;;;;;;;;12.40;99.90;;;;;;5012006;28;19922;-62
2022/12/25 11:23:24;;;;;;;;;;;12.40;99.90;;;;;;5011616;28;20385;-64
2022/12/25 11:25:54;;;;;;;;;;;12.30;99.90;;;;;;5025124;28;19924;-65
2022/12/25 11:28:19;;;;;;;;;;;12.30;99.90;;;;;;5014871;28;20495;-62
2022/12/25 11:30:47;;;;;;;;;;;12.30;99.90;;;;;;5006626;28;20023;-66
2022/12/25 11:33:13;;;;;;;;;;;12.40;99.90;;;;;;5006955;28;20401;-65
2022/12/25 11:35:49;;;;;;;;;;;12.40;99.90;;;;;;5003528;28;20325;-65
2022/12/25 11:38:14;;;;;;;;;;;12.40;99.90;;;;;;5008706;28;20385;-65
2022/12/25 11:40:45;;;;;;;;;;;12.30;99.90;;;;;;5014721;28;19947;-63
2022/12/25 11:43:14;;;;;;;;;;;12.30;99.90;;;;;;5013697;28;20388;-63
2022/12/25 11:45:46;;;;;;;;;;;12.30;99.90;;;;;;5007796;28;19914;-63
2022/12/25 11:48:11;;;;;;;;;;;12.40;99.90;;;;;;4999133;28;19914;-65
2022/12/25 11:50:40;;;;;;;;;;;12.50;99.90;;;;;;5005126;28;19920;-62
2022/12/25 11:53:13;;;;;;;;;;;12.60;99.90;;;;;;5015807;28;19948;-63
2022/12/25 11:55:59;;;;;;;;;;;12.60;99.90;;;;;;5007392;28;19917;-62
2022/12/25 11:58:30;;;;;;;;;;;12.70;99.90;;;;;;5010726;28;19909;-62
2022/12/25 12:00:57;;;;;;;;;;;12.70;99.90;;;;;;5005290;28;19921;-66
2022/12/25 12:03:23;;;;;;;;;;;12.70;99.90;;;;;;5001699;28;19945;-64
2022/12/25 12:05:57;;;;;;;;;;;12.70;99.90;;;;;;5010985;28;19965;-62
2022/12/25 12:08:22;;;;;;;;;;;12.70;99.90;;;;;;5009960;28;19940;-63
2022/12/25 12:11:15;;;;;;;;;;;12.70;99.90;;;;;;5008512;28;20372;-61
2022/12/25 12:13:42;;;;;;;;;;;12.70;99.90;;;;;;5015069;28;20361;-60
2022/12/25 12:16:08;;;;;;;;;;;12.60;99.90;;;;;;5001276;28;19945;-66
2022/12/25 12:18:34;;;;;;;;;;;12.60;99.90;;;;;;5000771;28;19945;-61
2022/12/25 12:21:15;;;;;;;;;;;12.50;99.90;;;;;;5006161;28;20346;-62
2022/12/25 12:23:53;;;;;;;;;;;12.50;99.90;;;;;;4999800;28;19945;-63
2022/12/25 12:26:28;;;;;;;;;;;12.50;99.90;;;;;;5011136;28;19978;-63
2022/12/25 12:28:56;;;;;;;;;;;12.40;99.90;;;;;;5001428;28;20288;-63
2022/12/25 12:31:22;;;;;;;;;;;12.50;99.90;;;;;;4999536;28;20013;-63
2022/12/25 12:33:53;;;;;;;;;;;12.50;99.90;;;;;;5006736;28;20387;-63
2022/12/25 12:36:21;;;;;;;;;;;12.50;99.90;;;;;;4989877;28;20009;-63
2022/12/25 12:38:48;;;;;;;;;;;12.50;99.90;;;;;;4996981;28;19913;-64
2022/12/25 12:41:15;;;;;;;;;;;12.50;99.90;;;;;;5006392;28;19913;-65
2022/12/25 12:43:44;;;;;;;;;;;12.50;99.90;;;;;;5016571;28;19925;-63
2022/12/25 12:46:18;;;;;;;;;;;12.50;99.90;;;;;;5002646;28;20432;-66
2022/12/25 12:48:45;;;;;;;;;;;12.50;99.90;;;;;;4994863;28;19918;-66
2022/12/25 12:51:13;;;;;;;;;;;12.50;99.90;;;;;;5004613;28;19918;-62
2022/12/25 12:53:40;;;;;;;;;;;12.50;99.90;;;;;;5003150;28;20234;-65
2022/12/25 12:56:12;;;;;;;;;;;12.50;99.90;;;;;;5000690;28;19918;-63
2022/12/25 12:58:43;;;;;;;;;;;12.50;99.90;;;;;;4998628;28;19921;-64
2022/12/25 13:01:21;;;;;;;;;;;12.50;99.90;;;;;;5004051;28;19936;-65
2022/12/25 13:03:55;;;;;;;;;;;12.50;99.90;;;;;;5006662;28;19936;-66
2022/12/25 13:06:33;;;;;;;;;;;12.50;99.90;;;;;;5009863;28;19921;-64
2022/12/25 13:09:09;;;;;;;;;;;12.40;99.90;;;;;;4997820;28;20099;-62
2022/12/25 13:11:38;;;;;;;;;;;12.50;99.90;;;;;;5000568;28;19922;-64
2022/12/25 13:14:04;;;;;;;;;;;12.40;99.90;;;;;;5004260;28;19924;-65
2022/12/25 13:16:37;;;;;;;;;;;12.50;99.90;;;;;;5000130;28;19921;-64
2022/12/25 13:19:07;;;;;;;;;;;12.40;99.90;;;;;;5010239;28;19919;-64
2022/12/25 13:21:33;;;;;;;;;;;12.50;99.90;;;;;;5012335;28;19920;-65
2022/12/25 13:24:07;;;;;;;;;;;12.50;99.90;;;;;;5010989;28;20373;-62
2022/12/25 13:26:33;;;;;;;;;;;12.60;99.90;;;;;;5017547;28;19925;-65
2022/12/25 13:28:59;;;;;;;;;;;12.60;99.90;;;;;;5011936;28;20276;-65
2022/12/25 13:31:28;;;;;;;;;;;12.60;99.90;;;;;;5002715;28;19914;-63
2022/12/25 13:33:59;;;;;;;;;;;12.50;99.90;;;;;;5008180;28;19924;-61
2022/12/25 13:36:26;;;;;;;;;;;12.50;99.90;;;;;;5006622;28;19913;-65
2022/12/25 13:38:54;;;;;;;;;;;12.50;99.90;;;;;;5004070;28;19918;-65
2022/12/25 13:44:29;;;;;;;;;;;12.40;99.90;;;;;;5001886;28;19944;-64
2022/12/25 13:46:54;;;;;;;;;;;12.40;99.90;;;;;;5006772;28;19920;-64
2022/12/25 13:49:21;;;;;;;;;;;12.40;99.90;;;;;;5004879;28;19928;-64
2022/12/25 13:51:47;;;;;;;;;;;12.40;99.90;;;;;;5001659;28;19937;-64
2022/12/25 13:54:14;;;;;;;;;;;12.50;99.90;;;;;;5014920;28;19909;-64
2022/12/25 13:57:09;;;;;;;;;;;12.40;99.90;;;;;;5003840;28;19925;-64
2022/12/25 13:59:36;;;;;;;;;;;12.30;99.90;;;;;;4989889;28;20411;-65
2022/12/25 14:02:02;;;;;;;;;;;12.20;99.90;;;;;;5009441;28;19965;-64
2022/12/25 14:04:27;;;;;;;;;;;12.30;99.90;;;;;;5017025;28;19940;-63
2022/12/25 14:06:53;;;;;;;;;;;12.20;99.90;;;;;;5010743;28;19914;-64
2022/12/25 14:09:19;;;;;;;;;;;12.20;99.90;;;;;;5017801;28;19936;-64
2022/12/25 14:11:47;;;;;;;;;;;12.30;99.90;;;;;;5015330;28;19920;-65
2022/12/25 14:14:16;;;;;;;;;;;12.20;99.90;;;;;;5010367;28;20047;-65
2022/12/25 14:16:47;;;;;;;;;;;12.20;99.90;;;;;;4996562;28;19928;-64
2022/12/25 14:19:26;;;;;;;;;;;12.20;99.90;;;;;;4996325;28;19931;-65
2022/12/25 14:21:54;;;;;;;;;;;12.20;99.90;;;;;;5024417;28;20019;-64
2022/12/25 14:24:21;;;;;;;;;;;12.10;99.90;;;;;;5013355;28;19913;-63
2022/12/25 14:26:55;;;;;;;;;;;12.10;99.90;;;;;;5017932;28;19918;-64
2022/12/25 14:29:20;;;;;;;;;;;12.10;99.90;;;;;;5006698;28;19917;-65
2022/12/25 14:31:46;;;;;;;;;;;12.10;99.90;;;;;;5006088;28;19952;-64
2022/12/25 14:34:20;;;;;;;;;;;12.10;99.90;;;;;;5007664;28;19923;-65
2022/12/25 14:36:46;;;;;;;;;;;12.00;99.90;;;;;;5007080;28;19917;-64
2022/12/25 14:39:25;;;;;;;;;;;12.00;99.90;;;;;;4987651;28;19913;-63
2022/12/25 14:41:51;;;;;;;;;;;12.00;99.90;;;;;;5000013;28;19921;-62
2022/12/25 14:44:39;;;;;;;;;;;12.10;99.90;;;;;;5008280;28;19928;-64
2022/12/25 14:47:12;;;;;;;;;;;12.10;99.90;;;;;;5003881;28;19937;-66
2022/12/25 14:49:38;;;;;;;;;;;12.10;99.90;;;;;;5012229;28;20389;-62
2022/12/25 14:52:09;;;;;;;;;;;12.00;99.90;;;;;;5003952;28;19914;-65
2022/12/25 14:54:35;;;;;;;;;;;12.00;99.90;;;;;;5013751;28;20015;-63
2022/12/25 14:57:00;;;;;;;;;;;12.10;99.90;;;;;;5020855;28;20552;-64
2022/12/25 14:59:26;;;;;;;;;;;12.00;99.90;;;;;;5013221;28;19936;-65
2022/12/25 15:01:54;;;;;;;;;;;12.00;99.90;;;;;;5006849;28;19914;-64
2022/12/25 15:04:21;;;;;;;;;;;12.00;99.90;;;;;;5011409;28;19914;-64
2022/12/25 15:06:52;;;;;;;;;;;12.00;99.90;;;;;;5009751;28;20246;-65
2022/12/25 15:09:18;;;;;;;;;;;11.90;99.90;;;;;;5006136;28;19937;-63
2022/12/25 15:11:50;;;;;;;;;;;12.00;99.90;;;;;;5017921;28;19914;-65
2022/12/25 15:14:16;;;;;;;;;;;12.00;99.90;;;;;;5007326;28;19988;-65
2022/12/25 15:16:46;;;;;;;;;;;11.90;99.90;;;;;;5008673;28;20358;-66
2022/12/25 15:19:16;;;;;;;;;;;12.00;99.90;;;;;;5024586;28;19919;-64
2022/12/25 15:21:43;;;;;;;;;;;12.00;99.90;;;;;;5006074;28;19960;-64
2022/12/25 15:24:10;;;;;;;;;;;12.00;99.90;;;;;;4992808;28;19914;-65
2022/12/25 15:26:35;;;;;;;;;;;12.00;99.90;;;;;;5010815;28;20547;-64
2022/12/25 15:29:01;;;;;;;;;;;12.00;99.90;;;;;;5011788;28;19917;-63
2022/12/25 15:31:28;;;;;;;;;;;11.90;99.90;;;;;;5004835;28;19939;-64
2022/12/25 15:33:55;;;;;;;;;;;12.00;99.90;;;;;;5009776;28;19914;-63
2022/12/25 15:36:21;;;;;;;;;;;11.90;99.90;;;;;;5011395;28;20391;-62
2022/12/25 15:38:46;;;;;;;;;;;11.90;99.90;;;;;;5020511;28;19913;-64
2022/12/25 15:42:09;;;;;;;;;;;11.80;99.90;;;;;;5021293;28;19913;-65
2022/12/25 15:44:01;;;;;;;;;;;11.90;99.90;;;;;;5001557;28;19914;-63
2022/12/25 15:46:27;;;;;;;;;;;11.80;99.90;;;;;;5009539;28;20022;-66
2022/12/25 15:48:53;;;;;;;;;;;11.90;99.90;;;;;;4991424;28;20305;-66
2022/12/25 15:51:18;;;;;;;;;;;11.80;99.90;;;;;;5017311;28;19925;-67
2022/12/25 15:53:44;;;;;;;;;;;11.80;99.90;;;;;;5013077;28;19920;-67
2022/12/25 15:56:10;;;;;;;;;;;11.80;99.90;;;;;;4996128;28;19956;-67
2022/12/25 15:58:36;;;;;;;;;;;11.80;99.90;;;;;;5010650;28;19917;-68
2022/12/25 16:01:01;;;;;;;;;;;11.90;99.90;;;;;;5013694;28;20134;-68
2022/12/25 16:03:27;;;;;;;;;;;11.90;99.90;;;;;;5013007;28;19920;-67
2022/12/25 16:05:53;;;;;;;;;;;11.90;99.90;;;;;;5016870;28;19913;-66
2022/12/25 16:08:19;;;;;;;;;;;11.80;99.90;;;;;;5018790;28;20000;-67
2022/12/25 16:10:45;;;;;;;;;;;11.80;99.90;;;;;;5010837;28;20072;-68